sensor_id;sensor_type;location;lat;lon;timestamp;P1;durP1;ratioP1;P2;durP2;ratioP2
45970;SDS011;31681;48.982;8.394;2022-11-20T00:00:23;20.00;;;9.83;;
45970;SDS011;31681;48.982;8.394;2022-11-20T00:02:48;17.73;;;9.37;;
45970;SDS011;31681;48.982;8.394;2022-11-20T00:05:14;18.13;;;10.10;;
45970;SDS011;31681;48.982;8.394;2022-11-20T00:07:39;17.87;;;9.93;;
45970;SDS011;31681;48.982;8.394;2022-11-20T00:10:05;22.43;;;10.77;;
45970;SDS011;31681;48.982;8.394;2022-11-20T00:12:30;19.30;;;9.67;;
45970;SDS011;31681;48.982;8.394;2022-11-20T00:14:56;17.43;;;9.73;;
45970;SDS011;31681;48.982;8.394;2022-11-20T00:17:21;18.07;;;9.30;;
45970;SDS011;31681;48.982;8.394;2022-11-20T00:19:46;23.00;;;10.30;;
45970;SDS011;31681;48.982;8.394;2022-11-20T00:22:12;20.80;;;9.30;;
45970;SDS011;31681;48.982;8.394;2022-11-20T00:24:37;19.87;;;9.90;;
45970;SDS011;31681;48.982;8.394;2022-11-20T00:27:02;16.80;;;9.07;;
45970;SDS011;31681;48.982;8.394;2022-11-20T00:29:27;19.50;;;9.97;;
45970;SDS011;31681;48.982;8.394;2022-11-20T00:31:53;19.63;;;9.77;;
45970;SDS011;31681;48.982;8.394;2022-11-20T00:34:18;20.93;;;9.07;;
45970;SDS011;31681;48.982;8.394;2022-11-20T00:36:43;21.20;;;9.70;;
45970;SDS011;31681;48.982;8.394;2022-11-20T00:39:09;18.87;;;9.80;;
45970;SDS011;31681;48.982;8.394;2022-11-20T00:41:34;18.53;;;10.60;;
45970;SDS011;31681;48.982;8.394;2022-11-20T00:43:59;19.23;;;9.53;;
45970;SDS011;31681;48.982;8.394;2022-11-20T00:46:25;16.97;;;9.37;;
45970;SDS011;31681;48.982;8.394;2022-11-20T00:48:51;18.67;;;9.07;;
45970;SDS011;31681;48.982;8.394;2022-11-20T00:51:17;19.33;;;9.60;;
45970;SDS011;31681;48.982;8.394;2022-11-20T00:53:43;17.20;;;8.77;;
45970;SDS011;31681;48.982;8.394;2022-11-20T00:56:12;19.97;;;9.17;;
45970;SDS011;31681;48.982;8.394;2022-11-20T00:58:39;18.10;;;9.50;;
45970;SDS011;31681;48.982;8.394;2022-11-20T01:01:06;15.80;;;8.87;;
45970;SDS011;31681;48.982;8.394;2022-11-20T01:03:32;14.87;;;8.83;;
45970;SDS011;31681;48.982;8.394;2022-11-20T01:06:01;22.93;;;10.47;;
45970;SDS011;31681;48.982;8.394;2022-11-20T01:08:29;14.97;;;8.93;;
45970;SDS011;31681;48.982;8.394;2022-11-20T01:10:58;21.80;;;9.43;;
45970;SDS011;31681;48.982;8.394;2022-11-20T01:13:23;19.57;;;8.40;;
45970;SDS011;31681;48.982;8.394;2022-11-20T01:18:32;18.47;;;9.20;;
45970;SDS011;31681;48.982;8.394;2022-11-20T01:21:05;14.87;;;8.23;;
45970;SDS011;31681;48.982;8.394;2022-11-20T01:23:35;18.63;;;8.27;;
45970;SDS011;31681;48.982;8.394;2022-11-20T01:26:01;14.83;;;7.80;;
45970;SDS011;31681;48.982;8.394;2022-11-20T01:28:28;17.97;;;8.07;;
45970;SDS011;31681;48.982;8.394;2022-11-20T01:30:53;16.13;;;8.30;;
45970;SDS011;31681;48.982;8.394;2022-11-20T01:33:18;17.97;;;8.30;;
45970;SDS011;31681;48.982;8.394;2022-11-20T01:35:44;15.87;;;8.10;;
45970;SDS011;31681;48.982;8.394;2022-11-20T01:38:09;14.90;;;8.03;;
45970;SDS011;31681;48.982;8.394;2022-11-20T01:40:34;20.40;;;9.03;;
45970;SDS011;31681;48.982;8.394;2022-11-20T01:43:12;15.77;;;8.47;;
45970;SDS011;31681;48.982;8.394;2022-11-20T01:46:13;13.70;;;7.57;;
45970;SDS011;31681;48.982;8.394;2022-11-20T01:51:17;16.07;;;7.90;;
45970;SDS011;31681;48.982;8.394;2022-11-20T01:53:44;17.47;;;8.17;;
45970;SDS011;31681;48.982;8.394;2022-11-20T01:56:10;14.77;;;7.63;;
45970;SDS011;31681;48.982;8.394;2022-11-20T01:58:38;16.17;;;8.23;;
45970;SDS011;31681;48.982;8.394;2022-11-20T02:01:05;15.87;;;8.40;;
45970;SDS011;31681;48.982;8.394;2022-11-20T02:03:30;12.47;;;7.40;;
45970;SDS011;31681;48.982;8.394;2022-11-20T02:08:27;16.37;;;7.17;;
45970;SDS011;31681;48.982;8.394;2022-11-20T02:10:53;10.27;;;6.53;;
45970;SDS011;31681;48.982;8.394;2022-11-20T02:13:18;14.23;;;6.70;;
45970;SDS011;31681;48.982;8.394;2022-11-20T02:16:02;11.67;;;6.70;;
45970;SDS011;31681;48.982;8.394;2022-11-20T02:18:28;8.90;;;6.30;;
45970;SDS011;31681;48.982;8.394;2022-11-20T02:20:54;10.60;;;5.97;;
45970;SDS011;31681;48.982;8.394;2022-11-20T02:25:46;10.63;;;6.70;;
45970;SDS011;31681;48.982;8.394;2022-11-20T02:28:12;9.87;;;6.30;;
45970;SDS011;31681;48.982;8.394;2022-11-20T02:30:38;9.60;;;5.53;;
45970;SDS011;31681;48.982;8.394;2022-11-20T02:33:03;10.57;;;6.00;;
45970;SDS011;31681;48.982;8.394;2022-11-20T02:37:56;11.17;;;5.30;;
45970;SDS011;31681;48.982;8.394;2022-11-20T02:40:21;8.23;;;5.77;;
45970;SDS011;31681;48.982;8.394;2022-11-20T02:42:47;11.37;;;5.23;;
45970;SDS011;31681;48.982;8.394;2022-11-20T02:45:12;9.60;;;5.30;;
45970;SDS011;31681;48.982;8.394;2022-11-20T02:47:38;8.00;;;4.90;;
45970;SDS011;31681;48.982;8.394;2022-11-20T02:50:03;8.47;;;5.10;;
45970;SDS011;31681;48.982;8.394;2022-11-20T02:52:29;7.53;;;5.07;;
45970;SDS011;31681;48.982;8.394;2022-11-20T02:54:54;10.37;;;5.50;;
45970;SDS011;31681;48.982;8.394;2022-11-20T02:57:20;8.33;;;4.97;;
45970;SDS011;31681;48.982;8.394;2022-11-20T02:59:45;7.90;;;4.87;;
45970;SDS011;31681;48.982;8.394;2022-11-20T03:02:10;10.13;;;5.80;;
45970;SDS011;31681;48.982;8.394;2022-11-20T03:04:36;8.90;;;4.67;;
45970;SDS011;31681;48.982;8.394;2022-11-20T03:07:02;7.70;;;4.67;;
45970;SDS011;31681;48.982;8.394;2022-11-20T03:09:27;7.73;;;4.27;;
45970;SDS011;31681;48.982;8.394;2022-11-20T03:11:53;9.60;;;4.47;;
45970;SDS011;31681;48.982;8.394;2022-11-20T03:14:18;7.83;;;4.60;;
45970;SDS011;31681;48.982;8.394;2022-11-20T03:16:43;6.30;;;4.57;;
45970;SDS011;31681;48.982;8.394;2022-11-20T03:19:09;6.83;;;4.43;;
45970;SDS011;31681;48.982;8.394;2022-11-20T03:21:34;6.77;;;4.40;;
45970;SDS011;31681;48.982;8.394;2022-11-20T03:23:59;10.23;;;4.77;;
45970;SDS011;31681;48.982;8.394;2022-11-20T03:26:25;7.67;;;4.70;;
45970;SDS011;31681;48.982;8.394;2022-11-20T03:28:52;9.57;;;4.50;;
45970;SDS011;31681;48.982;8.394;2022-11-20T03:31:18;6.67;;;4.33;;
45970;SDS011;31681;48.982;8.394;2022-11-20T03:33:44;6.43;;;4.43;;
45970;SDS011;31681;48.982;8.394;2022-11-20T03:36:13;6.93;;;4.43;;
45970;SDS011;31681;48.982;8.394;2022-11-20T03:38:39;5.33;;;3.70;;
45970;SDS011;31681;48.982;8.394;2022-11-20T03:41:10;5.70;;;4.07;;
45970;SDS011;31681;48.982;8.394;2022-11-20T03:43:35;8.97;;;4.60;;
45970;SDS011;31681;48.982;8.394;2022-11-20T03:46:01;5.40;;;3.70;;
45970;SDS011;31681;48.982;8.394;2022-11-20T03:48:27;7.43;;;4.50;;
45970;SDS011;31681;48.982;8.394;2022-11-20T03:50:53;5.93;;;3.87;;
45970;SDS011;31681;48.982;8.394;2022-11-20T03:53:19;6.10;;;3.90;;
45970;SDS011;31681;48.982;8.394;2022-11-20T03:55:45;8.93;;;4.20;;
45970;SDS011;31681;48.982;8.394;2022-11-20T03:58:10;5.83;;;4.10;;
45970;SDS011;31681;48.982;8.394;2022-11-20T04:00:35;6.53;;;3.80;;
45970;SDS011;31681;48.982;8.394;2022-11-20T04:03:01;6.80;;;3.47;;
45970;SDS011;31681;48.982;8.394;2022-11-20T04:05:27;7.07;;;4.20;;
45970;SDS011;31681;48.982;8.394;2022-11-20T04:07:52;5.83;;;3.80;;
45970;SDS011;31681;48.982;8.394;2022-11-20T04:10:17;6.43;;;3.70;;
45970;SDS011;31681;48.982;8.394;2022-11-20T04:12:43;7.10;;;4.10;;
45970;SDS011;31681;48.982;8.394;2022-11-20T04:15:08;5.10;;;3.57;;
45970;SDS011;31681;48.982;8.394;2022-11-20T04:17:34;6.90;;;4.00;;
45970;SDS011;31681;48.982;8.394;2022-11-20T04:19:59;8.13;;;4.03;;
45970;SDS011;31681;48.982;8.394;2022-11-20T04:22:24;6.83;;;4.20;;
45970;SDS011;31681;48.982;8.394;2022-11-20T04:24:49;4.20;;;3.33;;
45970;SDS011;31681;48.982;8.394;2022-11-20T04:27:15;5.83;;;3.77;;
45970;SDS011;31681;48.982;8.394;2022-11-20T04:29:40;4.97;;;3.70;;
45970;SDS011;31681;48.982;8.394;2022-11-20T04:32:05;5.90;;;4.20;;
45970;SDS011;31681;48.982;8.394;2022-11-20T04:34:31;7.27;;;4.03;;
45970;SDS011;31681;48.982;8.394;2022-11-20T04:36:56;5.20;;;3.50;;
45970;SDS011;31681;48.982;8.394;2022-11-20T04:39:22;5.40;;;3.80;;
45970;SDS011;31681;48.982;8.394;2022-11-20T04:41:47;5.33;;;3.23;;
45970;SDS011;31681;48.982;8.394;2022-11-20T04:44:12;4.57;;;3.80;;
45970;SDS011;31681;48.982;8.394;2022-11-20T04:46:38;4.30;;;3.47;;
45970;SDS011;31681;48.982;8.394;2022-11-20T04:49:04;6.40;;;3.97;;
45970;SDS011;31681;48.982;8.394;2022-11-20T04:51:30;5.67;;;3.67;;
45970;SDS011;31681;48.982;8.394;2022-11-20T04:53:55;5.53;;;3.70;;
45970;SDS011;31681;48.982;8.394;2022-11-20T04:56:21;5.67;;;4.00;;
45970;SDS011;31681;48.982;8.394;2022-11-20T04:58:46;8.57;;;4.00;;
45970;SDS011;31681;48.982;8.394;2022-11-20T05:01:12;3.63;;;3.23;;
45970;SDS011;31681;48.982;8.394;2022-11-20T05:03:38;5.67;;;3.67;;
45970;SDS011;31681;48.982;8.394;2022-11-20T05:06:04;5.30;;;3.50;;
45970;SDS011;31681;48.982;8.394;2022-11-20T05:08:30;5.70;;;3.53;;
45970;SDS011;31681;48.982;8.394;2022-11-20T05:11:15;6.83;;;4.03;;
45970;SDS011;31681;48.982;8.394;2022-11-20T05:13:41;7.47;;;4.00;;
45970;SDS011;31681;48.982;8.394;2022-11-20T05:16:07;4.83;;;3.50;;
45970;SDS011;31681;48.982;8.394;2022-11-20T05:18:33;5.50;;;3.17;;
45970;SDS011;31681;48.982;8.394;2022-11-20T05:20:59;6.47;;;3.77;;
45970;SDS011;31681;48.982;8.394;2022-11-20T05:23:24;4.20;;;3.20;;
45970;SDS011;31681;48.982;8.394;2022-11-20T05:25:53;6.10;;;3.65;;
45970;SDS011;31681;48.982;8.394;2022-11-20T05:28:19;5.47;;;3.50;;
45970;SDS011;31681;48.982;8.394;2022-11-20T05:30:44;4.27;;;3.10;;
45970;SDS011;31681;48.982;8.394;2022-11-20T05:33:10;4.80;;;3.03;;
45970;SDS011;31681;48.982;8.394;2022-11-20T05:35:35;5.40;;;2.83;;
45970;SDS011;31681;48.982;8.394;2022-11-20T05:38:00;4.53;;;3.27;;
45970;SDS011;31681;48.982;8.394;2022-11-20T05:40:26;4.03;;;2.87;;
45970;SDS011;31681;48.982;8.394;2022-11-20T05:42:51;4.03;;;2.97;;
45970;SDS011;31681;48.982;8.394;2022-11-20T05:45:16;4.63;;;3.13;;
45970;SDS011;31681;48.982;8.394;2022-11-20T05:47:42;3.60;;;2.70;;
45970;SDS011;31681;48.982;8.394;2022-11-20T05:50:07;3.93;;;2.70;;
45970;SDS011;31681;48.982;8.394;2022-11-20T05:52:32;3.57;;;2.83;;
45970;SDS011;31681;48.982;8.394;2022-11-20T05:54:58;3.73;;;3.03;;
45970;SDS011;31681;48.982;8.394;2022-11-20T05:57:23;3.70;;;3.00;;
45970;SDS011;31681;48.982;8.394;2022-11-20T05:59:48;4.47;;;2.90;;
45970;SDS011;31681;48.982;8.394;2022-11-20T06:02:14;3.80;;;2.57;;
45970;SDS011;31681;48.982;8.394;2022-11-20T06:04:39;3.90;;;2.57;;
45970;SDS011;31681;48.982;8.394;2022-11-20T06:07:05;2.97;;;2.67;;
45970;SDS011;31681;48.982;8.394;2022-11-20T06:09:30;4.10;;;2.70;;
45970;SDS011;31681;48.982;8.394;2022-11-20T06:11:56;4.60;;;2.50;;
45970;SDS011;31681;48.982;8.394;2022-11-20T06:14:21;3.47;;;2.40;;
45970;SDS011;31681;48.982;8.394;2022-11-20T06:16:46;3.53;;;2.30;;
45970;SDS011;31681;48.982;8.394;2022-11-20T06:19:11;3.47;;;2.37;;
45970;SDS011;31681;48.982;8.394;2022-11-20T06:21:37;3.20;;;2.60;;
45970;SDS011;31681;48.982;8.394;2022-11-20T06:24:02;4.40;;;2.40;;
45970;SDS011;31681;48.982;8.394;2022-11-20T06:26:28;3.60;;;2.30;;
45970;SDS011;31681;48.982;8.394;2022-11-20T06:28:53;3.50;;;2.50;;
45970;SDS011;31681;48.982;8.394;2022-11-20T06:31:20;3.73;;;2.60;;
45970;SDS011;31681;48.982;8.394;2022-11-20T06:33:46;5.10;;;2.50;;
45970;SDS011;31681;48.982;8.394;2022-11-20T06:36:12;4.20;;;2.23;;
45970;SDS011;31681;48.982;8.394;2022-11-20T06:38:41;5.50;;;2.20;;
45970;SDS011;31681;48.982;8.394;2022-11-20T06:41:10;4.73;;;2.23;;
45970;SDS011;31681;48.982;8.394;2022-11-20T06:43:38;4.70;;;2.40;;
45970;SDS011;31681;48.982;8.394;2022-11-20T06:46:04;3.83;;;2.70;;
45970;SDS011;31681;48.982;8.394;2022-11-20T06:48:30;5.43;;;2.33;;
45970;SDS011;31681;48.982;8.394;2022-11-20T06:50:55;4.60;;;2.60;;
45970;SDS011;31681;48.982;8.394;2022-11-20T06:53:21;3.33;;;2.40;;
45970;SDS011;31681;48.982;8.394;2022-11-20T06:55:47;5.23;;;2.90;;
45970;SDS011;31681;48.982;8.394;2022-11-20T06:58:13;4.47;;;2.43;;
45970;SDS011;31681;48.982;8.394;2022-11-20T07:00:38;4.00;;;2.30;;
45970;SDS011;31681;48.982;8.394;2022-11-20T07:03:05;2.93;;;2.27;;
45970;SDS011;31681;48.982;8.394;2022-11-20T07:05:30;3.57;;;2.20;;
45970;SDS011;31681;48.982;8.394;2022-11-20T07:07:56;3.43;;;2.40;;
45970;SDS011;31681;48.982;8.394;2022-11-20T07:10:21;6.57;;;2.37;;
45970;SDS011;31681;48.982;8.394;2022-11-20T07:12:50;5.27;;;2.60;;
45970;SDS011;31681;48.982;8.394;2022-11-20T07:15:16;2.57;;;2.03;;
45970;SDS011;31681;48.982;8.394;2022-11-20T07:17:41;3.43;;;2.30;;
45970;SDS011;31681;48.982;8.394;2022-11-20T07:20:07;3.90;;;2.60;;
45970;SDS011;31681;48.982;8.394;2022-11-20T07:22:32;3.30;;;2.57;;
45970;SDS011;31681;48.982;8.394;2022-11-20T07:24:57;5.73;;;2.83;;
45970;SDS011;31681;48.982;8.394;2022-11-20T07:27:23;3.43;;;2.27;;
45970;SDS011;31681;48.982;8.394;2022-11-20T07:29:48;5.60;;;2.50;;
45970;SDS011;31681;48.982;8.394;2022-11-20T07:32:13;4.13;;;2.30;;
45970;SDS011;31681;48.982;8.394;2022-11-20T07:34:39;2.57;;;1.87;;
45970;SDS011;31681;48.982;8.394;2022-11-20T07:37:04;2.60;;;2.10;;
45970;SDS011;31681;48.982;8.394;2022-11-20T07:39:29;3.40;;;2.03;;
45970;SDS011;31681;48.982;8.394;2022-11-20T07:41:55;4.07;;;2.60;;
45970;SDS011;31681;48.982;8.394;2022-11-20T07:44:20;4.37;;;2.67;;
45970;SDS011;31681;48.982;8.394;2022-11-20T07:46:45;5.50;;;2.73;;
45970;SDS011;31681;48.982;8.394;2022-11-20T07:49:11;5.40;;;2.47;;
45970;SDS011;31681;48.982;8.394;2022-11-20T07:51:36;4.03;;;2.30;;
45970;SDS011;31681;48.982;8.394;2022-11-20T07:54:01;3.83;;;2.60;;
45970;SDS011;31681;48.982;8.394;2022-11-20T07:56:27;3.03;;;2.63;;
45970;SDS011;31681;48.982;8.394;2022-11-20T07:58:52;3.90;;;2.30;;
45970;SDS011;31681;48.982;8.394;2022-11-20T08:01:17;4.03;;;2.73;;
45970;SDS011;31681;48.982;8.394;2022-11-20T08:03:43;5.07;;;3.10;;
45970;SDS011;31681;48.982;8.394;2022-11-20T08:06:08;5.53;;;2.93;;
45970;SDS011;31681;48.982;8.394;2022-11-20T08:08:34;2.73;;;2.40;;
45970;SDS011;31681;48.982;8.394;2022-11-20T08:10:59;3.57;;;2.67;;
45970;SDS011;31681;48.982;8.394;2022-11-20T08:13:43;6.27;;;3.00;;
45970;SDS011;31681;48.982;8.394;2022-11-20T08:16:27;5.07;;;2.73;;
45970;SDS011;31681;48.982;8.394;2022-11-20T08:18:53;3.77;;;2.60;;
45970;SDS011;31681;48.982;8.394;2022-11-20T08:21:18;5.70;;;3.33;;
45970;SDS011;31681;48.982;8.394;2022-11-20T08:23:43;3.47;;;2.73;;
45970;SDS011;31681;48.982;8.394;2022-11-20T08:26:09;3.07;;;2.40;;
45970;SDS011;31681;48.982;8.394;2022-11-20T08:28:34;5.10;;;3.00;;
45970;SDS011;31681;48.982;8.394;2022-11-20T08:31:00;6.33;;;3.17;;
45970;SDS011;31681;48.982;8.394;2022-11-20T08:33:25;5.17;;;3.10;;
45970;SDS011;31681;48.982;8.394;2022-11-20T08:35:51;3.63;;;2.27;;
45970;SDS011;31681;48.982;8.394;2022-11-20T08:38:16;3.60;;;2.40;;
45970;SDS011;31681;48.982;8.394;2022-11-20T08:40:41;4.87;;;2.97;;
45970;SDS011;31681;48.982;8.394;2022-11-20T08:43:26;3.90;;;2.67;;
45970;SDS011;31681;48.982;8.394;2022-11-20T08:45:52;2.87;;;2.33;;
45970;SDS011;31681;48.982;8.394;2022-11-20T08:48:17;6.40;;;2.90;;
45970;SDS011;31681;48.982;8.394;2022-11-20T08:50:42;2.40;;;2.20;;
45970;SDS011;31681;48.982;8.394;2022-11-20T08:53:08;3.17;;;2.43;;
45970;SDS011;31681;48.982;8.394;2022-11-20T08:55:33;4.70;;;2.80;;
45970;SDS011;31681;48.982;8.394;2022-11-20T08:58:04;5.13;;;3.10;;
45970;SDS011;31681;48.982;8.394;2022-11-20T09:00:29;3.70;;;2.30;;
45970;SDS011;31681;48.982;8.394;2022-11-20T09:02:54;4.37;;;2.63;;
45970;SDS011;31681;48.982;8.394;2022-11-20T09:05:20;5.67;;;3.00;;
45970;SDS011;31681;48.982;8.394;2022-11-20T09:07:45;3.33;;;2.47;;
45970;SDS011;31681;48.982;8.394;2022-11-20T09:10:10;3.20;;;2.50;;
45970;SDS011;31681;48.982;8.394;2022-11-20T09:12:36;3.87;;;2.73;;
45970;SDS011;31681;48.982;8.394;2022-11-20T09:15:01;5.80;;;2.70;;
45970;SDS011;31681;48.982;8.394;2022-11-20T09:17:26;3.20;;;2.60;;
45970;SDS011;31681;48.982;8.394;2022-11-20T09:19:52;3.87;;;2.33;;
45970;SDS011;31681;48.982;8.394;2022-11-20T09:22:17;5.13;;;2.80;;
45970;SDS011;31681;48.982;8.394;2022-11-20T09:24:42;4.83;;;2.53;;
45970;SDS011;31681;48.982;8.394;2022-11-20T09:27:08;3.83;;;2.60;;
45970;SDS011;31681;48.982;8.394;2022-11-20T09:29:33;3.60;;;2.80;;
45970;SDS011;31681;48.982;8.394;2022-11-20T09:31:58;4.50;;;2.70;;
45970;SDS011;31681;48.982;8.394;2022-11-20T09:34:24;5.77;;;2.97;;
45970;SDS011;31681;48.982;8.394;2022-11-20T09:36:49;4.83;;;2.60;;
45970;SDS011;31681;48.982;8.394;2022-11-20T09:39:15;6.00;;;3.30;;
45970;SDS011;31681;48.982;8.394;2022-11-20T09:51:43;4.13;;;2.90;;
45970;SDS011;31681;48.982;8.394;2022-11-20T09:54:17;4.67;;;2.90;;
45970;SDS011;31681;48.982;8.394;2022-11-20T09:56:47;5.07;;;3.10;;
45970;SDS011;31681;48.982;8.394;2022-11-20T09:59:58;4.30;;;3.20;;
45970;SDS011;31681;48.982;8.394;2022-11-20T10:02:08;6.80;;;3.30;;
45970;SDS011;31681;48.982;8.394;2022-11-20T10:04:37;4.97;;;3.10;;
45970;SDS011;31681;48.982;8.394;2022-11-20T10:07:11;4.57;;;3.40;;
45970;SDS011;31681;48.982;8.394;2022-11-20T10:09:39;8.40;;;3.20;;
45970;SDS011;31681;48.982;8.394;2022-11-20T10:12:28;4.83;;;3.43;;
45970;SDS011;31681;48.982;8.394;2022-11-20T10:30:10;5.73;;;3.23;;
45970;SDS011;31681;48.982;8.394;2022-11-20T10:32:38;6.17;;;3.30;;
45970;SDS011;31681;48.982;8.394;2022-11-20T10:37:29;3.75;;;2.97;;
45970;SDS011;31681;48.982;8.394;2022-11-20T10:40:11;4.45;;;3.05;;
45970;SDS011;31681;48.982;8.394;2022-11-20T10:42:42;6.85;;;3.17;;
45970;SDS011;31681;48.982;8.394;2022-11-20T10:47:48;5.60;;;3.17;;
45970;SDS011;31681;48.982;8.394;2022-11-20T10:50:15;6.37;;;3.00;;
45970;SDS011;31681;48.982;8.394;2022-11-20T10:55:12;4.07;;;2.58;;
45970;SDS011;31681;48.982;8.394;2022-11-20T11:00:24;5.45;;;2.70;;
45970;SDS011;31681;48.982;8.394;2022-11-20T11:02:53;4.82;;;3.00;;
45970;SDS011;31681;48.982;8.394;2022-11-20T11:07:45;4.88;;;3.20;;
45970;SDS011;31681;48.982;8.394;2022-11-20T11:10:16;4.68;;;2.72;;
45970;SDS011;31681;48.982;8.394;2022-11-20T11:12:45;5.15;;;2.92;;
45970;SDS011;31681;48.982;8.394;2022-11-20T11:15:13;5.50;;;2.50;;
45970;SDS011;31681;48.982;8.394;2022-11-20T11:17:45;3.45;;;2.53;;
45970;SDS011;31681;48.982;8.394;2022-11-20T11:22:46;3.85;;;2.58;;
45970;SDS011;31681;48.982;8.394;2022-11-20T11:25:19;3.55;;;2.63;;
45970;SDS011;31681;48.982;8.394;2022-11-20T11:27:45;3.55;;;2.70;;
45970;SDS011;31681;48.982;8.394;2022-11-20T11:30:15;6.90;;;2.67;;
45970;SDS011;31681;48.982;8.394;2022-11-20T11:32:41;6.05;;;2.83;;
45970;SDS011;31681;48.982;8.394;2022-11-20T11:35:11;5.07;;;2.33;;
45970;SDS011;31681;48.982;8.394;2022-11-20T11:37:43;2.25;;;2.00;;
45970;SDS011;31681;48.982;8.394;2022-11-20T11:40:10;2.60;;;2.10;;
45970;SDS011;31681;48.982;8.394;2022-11-20T11:42:40;5.50;;;2.45;;
45970;SDS011;31681;48.982;8.394;2022-11-20T11:45:07;4.32;;;2.33;;
45970;SDS011;31681;48.982;8.394;2022-11-20T11:47:35;4.97;;;2.20;;
45970;SDS011;31681;48.982;8.394;2022-11-20T11:50:22;4.40;;;1.77;;
45970;SDS011;31681;48.982;8.394;2022-11-20T11:52:49;4.25;;;1.70;;
45970;SDS011;31681;48.982;8.394;2022-11-20T11:57:52;1.95;;;1.30;;
45970;SDS011;31681;48.982;8.394;2022-11-20T12:00:19;1.80;;;1.23;;
45970;SDS011;31681;48.982;8.394;2022-11-20T12:05:16;4.35;;;1.52;;
45970;SDS011;31681;48.982;8.394;2022-11-20T12:07:43;2.80;;;1.60;;
45970;SDS011;31681;48.982;8.394;2022-11-20T12:10:19;3.45;;;1.60;;
45970;SDS011;31681;48.982;8.394;2022-11-20T12:12:46;3.42;;;1.65;;
45970;SDS011;31681;48.982;8.394;2022-11-20T12:15:16;2.90;;;1.38;;
45970;SDS011;31681;48.982;8.394;2022-11-20T12:17:44;5.38;;;1.52;;
45970;SDS011;31681;48.982;8.394;2022-11-20T12:20:11;3.40;;;1.40;;
45970;SDS011;31681;48.982;8.394;2022-11-20T12:22:45;2.45;;;1.42;;
45970;SDS011;31681;48.982;8.394;2022-11-20T12:27:48;3.25;;;1.60;;
45970;SDS011;31681;48.982;8.394;2022-11-20T12:30:17;2.83;;;1.15;;
45970;SDS011;31681;48.982;8.394;2022-11-20T12:40:59;4.53;;;1.23;;
45970;SDS011;31681;48.982;8.394;2022-11-20T12:43:29;3.78;;;1.63;;
45970;SDS011;31681;48.982;8.394;2022-11-20T12:51:47;2.25;;;1.02;;
45970;SDS011;31681;48.982;8.394;2022-11-20T12:57:24;2.30;;;1.15;;
45970;SDS011;31681;48.982;8.394;2022-11-20T12:59:46;2.70;;;1.25;;
45970;SDS011;31681;48.982;8.394;2022-11-20T13:05:41;3.25;;;0.80;;
45970;SDS011;31681;48.982;8.394;2022-11-20T13:07:47;2.15;;;0.80;;
45970;SDS011;31681;48.982;8.394;2022-11-20T13:12:45;1.30;;;0.90;;
45970;SDS011;31681;48.982;8.394;2022-11-20T13:15:16;1.00;;;0.70;;
45970;SDS011;31681;48.982;8.394;2022-11-20T13:17:45;2.95;;;0.90;;
45970;SDS011;31681;48.982;8.394;2022-11-20T13:20:13;3.75;;;1.20;;
45970;SDS011;31681;48.982;8.394;2022-11-20T13:22:43;1.40;;;0.68;;
45970;SDS011;31681;48.982;8.394;2022-11-20T13:25:10;1.85;;;1.00;;
45970;SDS011;31681;48.982;8.394;2022-11-20T13:27:35;1.83;;;0.85;;
45970;SDS011;31681;48.982;8.394;2022-11-20T13:30:03;1.52;;;0.88;;
45970;SDS011;31681;48.982;8.394;2022-11-20T13:32:42;2.15;;;1.00;;
45970;SDS011;31681;48.982;8.394;2022-11-20T13:35:12;0.73;;;0.70;;
45970;SDS011;31681;48.982;8.394;2022-11-20T13:37:48;3.05;;;0.80;;
45970;SDS011;31681;48.982;8.394;2022-11-20T13:40:23;1.23;;;1.13;;
45970;SDS011;31681;48.982;8.394;2022-11-20T13:45:22;3.40;;;0.80;;
45970;SDS011;31681;48.982;8.394;2022-11-20T13:47:48;0.82;;;0.77;;
45970;SDS011;31681;48.982;8.394;2022-11-20T13:50:14;1.10;;;0.80;;
45970;SDS011;31681;48.982;8.394;2022-11-20T13:52:45;0.82;;;0.80;;
45970;SDS011;31681;48.982;8.394;2022-11-20T13:55:31;1.85;;;0.88;;
45970;SDS011;31681;48.982;8.394;2022-11-20T13:58:06;3.05;;;1.25;;
45970;SDS011;31681;48.982;8.394;2022-11-20T14:00:41;1.65;;;0.90;;
45970;SDS011;31681;48.982;8.394;2022-11-20T14:03:09;2.22;;;0.98;;
45970;SDS011;31681;48.982;8.394;2022-11-20T14:05:38;3.85;;;0.90;;
45970;SDS011;31681;48.982;8.394;2022-11-20T14:08:05;4.43;;;0.98;;
45970;SDS011;31681;48.982;8.394;2022-11-20T14:10:31;1.27;;;0.90;;
45970;SDS011;31681;48.982;8.394;2022-11-20T14:12:57;3.72;;;1.33;;
45970;SDS011;31681;48.982;8.394;2022-11-20T14:17:51;0.82;;;0.77;;
45970;SDS011;31681;48.982;8.394;2022-11-20T14:20:16;2.15;;;0.80;;
45970;SDS011;31681;48.982;8.394;2022-11-20T14:22:51;0.57;;;0.57;;
45970;SDS011;31681;48.982;8.394;2022-11-20T14:27:44;4.53;;;1.10;;
45970;SDS011;31681;48.982;8.394;2022-11-20T14:30:35;3.40;;;0.70;;
45970;SDS011;31681;48.982;8.394;2022-11-20T14:33:01;1.38;;;0.60;;
45970;SDS011;31681;48.982;8.394;2022-11-20T14:35:28;2.00;;;0.60;;
45970;SDS011;31681;48.982;8.394;2022-11-20T14:37:54;2.08;;;1.13;;
45970;SDS011;31681;48.982;8.394;2022-11-20T14:40:24;1.58;;;0.98;;
45970;SDS011;31681;48.982;8.394;2022-11-20T14:42:50;2.25;;;1.00;;
45970;SDS011;31681;48.982;8.394;2022-11-20T14:45:15;1.15;;;0.73;;
45970;SDS011;31681;48.982;8.394;2022-11-20T14:47:41;1.48;;;0.60;;
45970;SDS011;31681;48.982;8.394;2022-11-20T14:50:18;1.35;;;0.88;;
45970;SDS011;31681;48.982;8.394;2022-11-20T14:52:54;1.30;;;1.20;;
45970;SDS011;31681;48.982;8.394;2022-11-20T14:55:30;1.38;;;1.02;;
45970;SDS011;31681;48.982;8.394;2022-11-20T14:57:57;3.17;;;1.00;;
45970;SDS011;31681;48.982;8.394;2022-11-20T15:00:23;3.45;;;0.90;;
45970;SDS011;31681;48.982;8.394;2022-11-20T15:02:49;2.70;;;0.80;;
45970;SDS011;31681;48.982;8.394;2022-11-20T15:05:16;2.42;;;1.15;;
45970;SDS011;31681;48.982;8.394;2022-11-20T15:07:42;3.38;;;1.00;;
45970;SDS011;31681;48.982;8.394;2022-11-20T15:12:41;3.13;;;0.90;;
45970;SDS011;31681;48.982;8.394;2022-11-20T15:15:11;2.65;;;1.00;;
45970;SDS011;31681;48.982;8.394;2022-11-20T15:17:37;2.47;;;0.82;;
45970;SDS011;31681;48.982;8.394;2022-11-20T15:20:03;2.55;;;0.88;;
45970;SDS011;31681;48.982;8.394;2022-11-20T15:22:31;2.35;;;1.00;;
45970;SDS011;31681;48.982;8.394;2022-11-20T15:24:56;2.63;;;0.93;;
45970;SDS011;31681;48.982;8.394;2022-11-20T15:27:22;3.58;;;0.82;;
45970;SDS011;31681;48.982;8.394;2022-11-20T15:29:48;0.77;;;0.70;;
45970;SDS011;31681;48.982;8.394;2022-11-20T15:32:13;3.28;;;0.90;;
45970;SDS011;31681;48.982;8.394;2022-11-20T15:34:38;2.20;;;1.00;;
45970;SDS011;31681;48.982;8.394;2022-11-20T15:37:03;1.48;;;0.70;;
45970;SDS011;31681;48.982;8.394;2022-11-20T15:39:29;6.80;;;0.90;;
45970;SDS011;31681;48.982;8.394;2022-11-20T15:41:54;1.08;;;0.82;;
45970;SDS011;31681;48.982;8.394;2022-11-20T15:44:19;3.40;;;1.20;;
45970;SDS011;31681;48.982;8.394;2022-11-20T15:46:45;4.75;;;1.20;;
45970;SDS011;31681;48.982;8.394;2022-11-20T15:49:15;3.65;;;1.55;;
45970;SDS011;31681;48.982;8.394;2022-11-20T15:51:41;1.33;;;0.85;;
45970;SDS011;31681;48.982;8.394;2022-11-20T15:54:12;1.70;;;1.10;;
45970;SDS011;31681;48.982;8.394;2022-11-20T15:56:38;1.23;;;0.60;;
45970;SDS011;31681;48.982;8.394;2022-11-20T15:59:03;2.35;;;1.05;;
45970;SDS011;31681;48.982;8.394;2022-11-20T16:01:28;1.75;;;0.90;;
45970;SDS011;31681;48.982;8.394;2022-11-20T16:03:54;3.55;;;1.10;;
45970;SDS011;31681;48.982;8.394;2022-11-20T16:06:19;1.05;;;0.90;;
45970;SDS011;31681;48.982;8.394;2022-11-20T16:08:45;1.95;;;0.80;;
45970;SDS011;31681;48.982;8.394;2022-11-20T16:11:14;1.33;;;1.17;;
45970;SDS011;31681;48.982;8.394;2022-11-20T16:13:39;1.65;;;0.90;;
45970;SDS011;31681;48.982;8.394;2022-11-20T16:18:55;2.00;;;0.90;;
45970;SDS011;31681;48.982;8.394;2022-11-20T16:21:20;2.38;;;1.15;;